Time;durP1;ratioP1;P1;durP2;ratioP2;P2;SDS_P1;SDS_P2;PMS_P1;PMS_P2;Temp;Humidity;BMP_temperature;BMP_pressure;BME280_temperature;BME280_humidity;BME280_pressure;Samples;Min_cycle;Max_cycle;Signal;HPM_P1;HPM_P2
2021/04/22 00:00:29;;;;;;;2.58;1.17;;;;;;;;;;5065470;28;20052;-51
2021/04/22 00:02:56;;;;;;;4.90;1.45;;;;;;;;;;5069335;28;20036;-54
2021/04/22 00:05:27;;;;;;;4.28;1.30;;;;;;;;;;5070965;28;20131;-53
2021/04/22 00:07:54;;;;;;;2.35;0.90;;;;;;;;;;5068306;28;20040;-53
2021/04/22 00:10:41;;;;;;;4.40;1.35;;;;;;;;;;5068750;28;20697;-55
2021/04/22 00:13:08;;;;;;;4.00;1.20;;;;;;;;;;5071629;28;20098;-54
2021/04/22 00:15:35;;;;;;;3.95;1.05;;;;;;;;;;5066320;28;20442;-53
2021/04/22 00:18:01;;;;;;;4.07;1.25;;;;;;;;;;5071350;28;20044;-57
2021/04/22 00:20:28;;;;;;;6.97;1.37;;;;;;;;;;5066349;28;20044;-54
2021/04/22 00:22:54;;;;;;;4.70;1.10;;;;;;;;;;5070227;28;20287;-53
2021/04/22 00:25:20;;;;;;;8.20;1.83;;;;;;;;;;5065880;28;20056;-54
2021/04/22 00:27:46;;;;;;;7.45;1.67;;;;;;;;;;5067328;28;20151;-54
2021/04/22 00:30:14;;;;;;;4.85;0.73;;;;;;;;;;5066152;28;20385;-53
2021/04/22 00:32:41;;;;;;;6.13;1.20;;;;;;;;;;5069018;28;20119;-53
2021/04/22 00:35:09;;;;;;;7.38;1.23;;;;;;;;;;5066277;28;20143;-55
2021/04/22 00:37:36;;;;;;;9.73;1.57;;;;;;;;;;5068160;28;20115;-53
2021/04/22 00:40:10;;;;;;;5.10;1.65;;;;;;;;;;5066689;28;20293;-53
2021/04/22 00:42:37;;;;;;;2.75;1.15;;;;;;;;;;5061458;28;20064;-53
2021/04/22 00:45:03;;;;;;;2.67;0.95;;;;;;;;;;5069564;28;20472;-54
2021/04/22 00:47:29;;;;;;;3.35;1.13;;;;;;;;;;5068763;28;20547;-55
2021/04/22 00:49:56;;;;;;;8.43;1.60;;;;;;;;;;5072184;28;20052;-55
2021/04/22 00:52:22;;;;;;;4.75;1.27;;;;;;;;;;5067837;28;20044;-53
2021/04/22 00:54:48;;;;;;;8.18;1.50;;;;;;;;;;5068784;28;20082;-54
2021/04/22 00:57:15;;;;;;;3.53;1.40;;;;;;;;;;5070210;28;20123;-57
2021/04/22 00:59:41;;;;;;;5.03;1.10;;;;;;;;;;5066799;28;20484;-56
2021/04/22 01:02:12;;;;;;;3.13;0.98;;;;;;;;;;5068454;28;20044;-55
2021/04/22 01:04:39;;;;;;;5.22;1.20;;;;;;;;;;5069465;28;20072;-55
2021/04/22 01:07:05;;;;;;;2.67;0.75;;;;;;;;;;5067883;28;20082;-53
2021/04/22 01:09:31;;;;;;;3.55;1.42;;;;;;;;;;5068282;28;20108;-56
2021/04/22 01:12:00;;;;;;;3.42;1.30;;;;;;;;;;5067431;28;20068;-53
2021/04/22 01:14:26;;;;;;;2.35;0.75;;;;;;;;;;5067751;28;20045;-53
2021/04/22 01:16:52;;;;;;;4.40;1.48;;;;;;;;;;5068124;28;20041;-55
2021/04/22 01:19:19;;;;;;;6.55;1.20;;;;;;;;;;5068191;28;20427;-56
2021/04/22 01:21:45;;;;;;;4.10;1.33;;;;;;;;;;5069693;28;20032;-53
2021/04/22 01:24:12;;;;;;;3.80;1.10;;;;;;;;;;5062756;28;20053;-56
2021/04/22 01:26:39;;;;;;;4.70;1.20;;;;;;;;;;5068127;28;20093;-53
2021/04/22 01:29:05;;;;;;;3.63;0.80;;;;;;;;;;5068597;28;20048;-54
2021/04/22 01:31:32;;;;;;;6.72;1.45;;;;;;;;;;5066080;28;20155;-55
2021/04/22 01:34:09;;;;;;;4.30;1.17;;;;;;;;;;5068683;28;20102;-55
2021/04/22 01:36:39;;;;;;;2.35;1.25;;;;;;;;;;5064176;28;20040;-57
2021/04/22 01:39:06;;;;;;;6.55;1.20;;;;;;;;;;5069676;28;20094;-55
2021/04/22 01:41:33;;;;;;;5.32;1.30;;;;;;;;;;5068125;28;20098;-56
2021/04/22 01:43:59;;;;;;;4.75;1.00;;;;;;;;;;5066176;28;20040;-55
2021/04/22 01:46:26;;;;;;;6.45;1.20;;;;;;;;;;5068894;28;20063;-54
2021/04/22 01:48:52;;;;;;;2.72;1.20;;;;;;;;;;5066741;28;20036;-56
2021/04/22 01:51:19;;;;;;;3.80;1.40;;;;;;;;;;5066723;28;20036;-57
2021/04/22 01:53:46;;;;;;;5.60;1.20;;;;;;;;;;5069582;28;20040;-54
2021/04/22 01:56:12;;;;;;;2.05;1.00;;;;;;;;;;5069297;28;20529;-57
2021/04/22 01:58:38;;;;;;;4.85;1.38;;;;;;;;;;5065606;28;20102;-52
2021/04/22 02:01:05;;;;;;;4.22;1.00;;;;;;;;;;5068996;28;20098;-57
2021/04/22 02:03:32;;;;;;;2.15;0.90;;;;;;;;;;5062748;28;20119;-57
2021/04/22 02:05:59;;;;;;;5.75;1.48;;;;;;;;;;5068642;28;20032;-59
2021/04/22 02:08:25;;;;;;;5.13;1.33;;;;;;;;;;5069181;28;20036;-56
2021/04/22 02:10:51;;;;;;;2.42;0.80;;;;;;;;;;5069745;28;20496;-56
2021/04/22 02:13:19;;;;;;;4.43;1.03;;;;;;;;;;5065736;28;20094;-58
2021/04/22 02:15:45;;;;;;;;;;;;;;;;;;5067363;28;20090;-56
2021/04/22 02:18:11;;;;;;;2.50;0.95;;;;;;;;;;5068117;28;19936;-58
2021/04/22 02:20:38;;;;;;;3.78;1.30;;;;;;;;;;5068743;28;20412;-57
2021/04/22 02:23:05;;;;;;;3.42;1.30;;;;;;;;;;5067438;28;20041;-58
2021/04/22 02:25:31;;;;;;;1.63;0.73;;;;;;;;;;5069558;28;20041;-57
2021/04/22 02:27:58;;;;;;;2.63;0.93;;;;;;;;;;5066202;28;20086;-54
2021/04/22 02:30:31;;;;;;;3.85;1.23;;;;;;;;;;5068126;28;20057;-56
2021/04/22 02:33:01;;;;;;;2.13;0.80;;;;;;;;;;5065783;28;20036;-58
2021/04/22 02:35:31;;;;;;;3.08;1.40;;;;;;;;;;5069962;28;20102;-57
2021/04/22 02:37:58;;;;;;;6.50;1.20;;;;;;;;;;5065512;28;20050;-57
2021/04/22 02:40:25;;;;;;;7.13;0.77;;;;;;;;;;5068494;28;20090;-57
2021/04/22 02:42:52;;;;;;;4.35;1.00;;;;;;;;;;5068989;28;20037;-58
2021/04/22 02:45:20;;;;;;;3.42;1.00;;;;;;;;;;5065521;28;20045;-57
2021/04/22 02:47:46;;;;;;;3.05;1.05;;;;;;;;;;5064414;28;20711;-58
2021/04/22 02:50:15;;;;;;;4.13;0.93;;;;;;;;;;5065332;28;20082;-56
2021/04/22 02:52:40;;;;;;;2.58;0.93;;;;;;;;;;5065685;28;20044;-56
2021/04/22 02:55:07;;;;;;;6.07;1.38;;;;;;;;;;5065016;28;20454;-57
2021/04/22 02:57:34;;;;;;;2.80;0.90;;;;;;;;;;5067290;28;20040;-58
2021/04/22 03:00:01;;;;;;;4.38;1.33;;;;;;;;;;5065879;28;20077;-55
2021/04/22 03:02:27;;;;;;;3.35;0.90;;;;;;;;;;5070448;28;20731;-57
2021/04/22 03:04:53;;;;;;;3.75;1.33;;;;;;;;;;5070794;28;20492;-57
2021/04/22 03:07:19;;;;;;;6.25;1.50;;;;;;;;;;5062230;28;20466;-55
2021/04/22 03:09:45;;;;;;;5.13;1.08;;;;;;;;;;5066175;28;20029;-56
2021/04/22 03:12:12;;;;;;;5.15;1.20;;;;;;;;;;5063974;28;20496;-57
2021/04/22 03:14:38;;;;;;;4.40;1.35;;;;;;;;;;5065588;28;20043;-58
2021/04/22 03:17:04;;;;;;;5.95;1.52;;;;;;;;;;5069184;28;20044;-56
2021/04/22 03:19:30;;;;;;;2.83;1.10;;;;;;;;;;5067282;28;20052;-57
2021/04/22 03:21:57;;;;;;;2.50;0.65;;;;;;;;;;5072638;28;20127;-56
2021/04/22 03:24:23;;;;;;;6.07;1.08;;;;;;;;;;5068001;28;20098;-58
2021/04/22 03:26:49;;;;;;;4.60;1.20;;;;;;;;;;5063502;28;20408;-58
2021/04/22 03:29:15;;;;;;;2.35;0.98;;;;;;;;;;5067965;28;20207;-58
2021/04/22 03:31:41;;;;;;;5.70;0.90;;;;;;;;;;5072408;28;20484;-58
2021/04/22 03:34:07;;;;;;;4.75;1.20;;;;;;;;;;5066851;28;20135;-58
2021/04/22 03:36:34;;;;;;;5.82;1.30;;;;;;;;;;5068318;28;20059;-57
2021/04/22 03:39:07;;;;;;;7.05;1.10;;;;;;;;;;5068530;28;20123;-57
2021/04/22 03:41:35;;;;;;;3.65;0.70;;;;;;;;;;5070313;28;20041;-59
2021/04/22 03:44:03;;;;;;;5.35;1.10;;;;;;;;;;5070319;28;20056;-58
2021/04/22 03:46:29;;;;;;;2.47;0.70;;;;;;;;;;5065772;28;20481;-59
2021/04/22 03:48:55;;;;;;;5.28;0.70;;;;;;;;;;5073790;28;20036;-57
2021/04/22 03:51:22;;;;;;;5.93;1.10;;;;;;;;;;5067324;28;20041;-60
2021/04/22 03:53:48;;;;;;;3.88;1.05;;;;;;;;;;5070497;28;20040;-59
2021/04/22 03:56:14;;;;;;;2.78;1.05;;;;;;;;;;5064685;28;20047;-58
2021/04/22 03:58:40;;;;;;;8.07;1.13;;;;;;;;;;5069496;28;20178;-57
2021/04/22 04:01:07;;;;;;;2.33;0.93;;;;;;;;;;5068172;28;20136;-58
2021/04/22 04:03:35;;;;;;;4.53;1.10;;;;;;;;;;5068048;28;20032;-59
2021/04/22 04:06:01;;;;;;;3.50;1.10;;;;;;;;;;5062545;28;20056;-58
2021/04/22 04:08:27;;;;;;;2.72;0.98;;;;;;;;;;5066288;28;20045;-55
2021/04/22 04:10:54;;;;;;;2.35;0.95;;;;;;;;;;5070113;28;20068;-57
2021/04/22 04:13:20;;;;;;;4.20;1.80;;;;;;;;;;5069502;28;20532;-57
2021/04/22 04:15:46;;;;;;;2.65;0.85;;;;;;;;;;5068123;28;20047;-58
2021/04/22 04:18:13;;;;;;;3.17;1.50;;;;;;;;;;5069771;28;20101;-59
2021/04/22 04:20:39;;;;;;;7.47;1.00;;;;;;;;;;5066352;28;20103;-58
2021/04/22 04:23:05;;;;;;;5.03;1.70;;;;;;;;;;5067797;28;20037;-59
2021/04/22 04:25:32;;;;;;;3.83;1.15;;;;;;;;;;5064120;28;20118;-57
2021/04/22 04:27:58;;;;;;;4.43;1.00;;;;;;;;;;5070929;28;20037;-55
2021/04/22 04:30:26;;;;;;;2.05;1.00;;;;;;;;;;5069607;28;20056;-58
2021/04/22 04:32:53;;;;;;;4.35;1.58;;;;;;;;;;5068417;28;20094;-58
2021/04/22 04:35:20;;;;;;;3.88;0.70;;;;;;;;;;5070032;28;20492;-58
2021/04/22 04:37:46;;;;;;;2.15;0.60;;;;;;;;;;5071373;28;20399;-57
2021/04/22 04:40:14;;;;;;;5.35;0.95;;;;;;;;;;5064694;28;20122;-58
2021/04/22 04:42:41;;;;;;;3.30;0.85;;;;;;;;;;5063554;28;20267;-53
2021/04/22 04:45:12;;;;;;;3.58;1.00;;;;;;;;;;5064583;28;20127;-57
2021/04/22 04:47:39;;;;;;;3.40;0.90;;;;;;;;;;5068859;28;20040;-55
2021/04/22 04:50:06;;;;;;;2.03;1.02;;;;;;;;;;5069184;28;20051;-59
2021/04/22 04:52:32;;;;;;;3.45;0.80;;;;;;;;;;5069084;28;20569;-55
2021/04/22 04:54:58;;;;;;;0.90;0.68;;;;;;;;;;5068360;28;20032;-58
2021/04/22 04:57:24;;;;;;;4.45;0.80;;;;;;;;;;5063836;28;20094;-57
2021/04/22 04:59:51;;;;;;;1.25;0.80;;;;;;;;;;5066159;28;20049;-57
2021/04/22 05:02:17;;;;;;;2.20;0.80;;;;;;;;;;5069107;28;20040;-57
2021/04/22 05:04:44;;;;;;;5.05;0.95;;;;;;;;;;5062936;28;20899;-58
2021/04/22 05:07:10;;;;;;;2.00;0.60;;;;;;;;;;5067302;28;20120;-56
2021/04/22 05:09:39;;;;;;;4.93;1.10;;;;;;;;;;5067960;28;20036;-55
2021/04/22 05:12:06;;;;;;;3.70;0.70;;;;;;;;;;5071370;28;20098;-55
2021/04/22 05:14:32;;;;;;;1.70;0.88;;;;;;;;;;5063090;28;20122;-58
2021/04/22 05:16:59;;;;;;;3.30;0.90;;;;;;;;;;5069076;28;20037;-58
2021/04/22 05:19:26;;;;;;;5.32;1.00;;;;;;;;;;5071069;28;20127;-58
2021/04/22 05:21:53;;;;;;;2.20;0.82;;;;;;;;;;5070337;28;20071;-57
2021/04/22 05:24:20;;;;;;;2.20;0.77;;;;;;;;;;5065616;28;20036;-59
2021/04/22 05:26:47;;;;;;;2.42;0.57;;;;;;;;;;5069774;28;20064;-58
2021/04/22 05:29:13;;;;;;;2.08;0.90;;;;;;;;;;5071430;28;20140;-56
2021/04/22 05:31:39;;;;;;;6.07;1.20;;;;;;;;;;5070930;28;20094;-58
2021/04/22 05:34:06;;;;;;;0.60;0.60;;;;;;;;;;5070484;28;20515;-58
2021/04/22 05:36:32;;;;;;;1.63;0.80;;;;;;;;;;5067369;28;20102;-58
2021/04/22 05:38:59;;;;;;;1.08;0.77;;;;;;;;;;5070202;28;20377;-56
2021/04/22 05:41:25;;;;;;;2.15;0.85;;;;;;;;;;5069685;28;20032;-56
2021/04/22 05:43:51;;;;;;;3.83;0.88;;;;;;;;;;5072441;28;20052;-57
2021/04/22 05:46:18;;;;;;;5.47;0.93;;;;;;;;;;5065603;28;20071;-58
2021/04/22 05:48:44;;;;;;;1.92;0.82;;;;;;;;;;5071003;28;20040;-57
2021/04/22 05:51:16;;;;;;;3.38;0.90;;;;;;;;;;5070925;28;20055;-57
2021/04/22 05:53:43;;;;;;;1.70;1.08;;;;;;;;;;5070347;28;20051;-57
2021/04/22 05:56:10;;;;;;;4.00;0.88;;;;;;;;;;5068944;28;20040;-58
2021/04/22 05:58:36;;;;;;;5.50;1.00;;;;;;;;;;5070657;28;20047;-58
2021/04/22 06:01:03;;;;;;;1.10;0.70;;;;;;;;;;5066825;28;20074;-58
2021/04/22 06:03:29;;;;;;;2.80;1.02;;;;;;;;;;5067236;28;20045;-58
2021/04/22 06:05:55;;;;;;;1.20;0.80;;;;;;;;;;5067782;28;20044;-58
2021/04/22 06:08:21;;;;;;;3.90;0.88;;;;;;;;;;5070500;28;20094;-58
2021/04/22 06:10:47;;;;;;;0.95;0.70;;;;;;;;;;5068830;28;20162;-59
2021/04/22 06:13:13;;;;;;;2.97;0.70;;;;;;;;;;5066761;28;20165;-58
2021/04/22 06:15:40;;;;;;;6.97;1.50;;;;;;;;;;5067431;28;20133;-56
2021/04/22 06:18:06;;;;;;;10.80;1.00;;;;;;;;;;5069937;28;20054;-59
2021/04/22 06:20:33;;;;;;;4.43;1.02;;;;;;;;;;5069570;28;20086;-59
2021/04/22 06:23:19;;;;;;;2.38;0.98;;;;;;;;;;5065333;28;20036;-58
2021/04/22 06:25:46;;;;;;;2.10;0.75;;;;;;;;;;5066351;28;20586;-58
2021/04/22 06:28:12;;;;;;;2.22;1.05;;;;;;;;;;5067263;28;20037;-59
2021/04/22 06:30:38;;;;;;;3.88;0.90;;;;;;;;;;5065419;28;20119;-57
2021/04/22 06:33:05;;;;;;;2.45;0.88;;;;;;;;;;5068857;28;20041;-58
2021/04/22 06:35:32;;;;;;;3.80;0.95;;;;;;;;;;5068404;28;20107;-59
2021/04/22 06:37:59;;;;;;;2.45;0.88;;;;;;;;;;5066221;28;20121;-57
2021/04/22 06:40:25;;;;;;;3.03;0.63;;;;;;;;;;5068755;28;20059;-59
2021/04/22 06:42:52;;;;;;;0.90;0.70;;;;;;;;;;5061660;28;20102;-59
2021/04/22 06:45:19;;;;;;;4.15;1.05;;;;;;;;;;5065808;28;20056;-58
2021/04/22 06:47:47;;;;;;;1.52;0.80;;;;;;;;;;5066094;28;20048;-58
2021/04/22 06:50:15;;;;;;;3.40;0.95;;;;;;;;;;5071560;28;20045;-59
2021/04/22 06:52:41;;;;;;;1.88;0.73;;;;;;;;;;5073481;28;20094;-58
2021/04/22 06:55:11;;;;;;;1.38;0.90;;;;;;;;;;5072714;28;20036;-59
2021/04/22 06:57:37;;;;;;;3.30;1.10;;;;;;;;;;5070347;28;20041;-59
2021/04/22 07:00:05;;;;;;;1.27;0.55;;;;;;;;;;5073088;28;20045;-59
2021/04/22 07:02:31;;;;;;;1.85;0.75;;;;;;;;;;5071892;28;20047;-59
2021/04/22 07:04:59;;;;;;;2.90;1.05;;;;;;;;;;5073232;28;20565;-59
2021/04/22 07:07:25;;;;;;;2.78;0.70;;;;;;;;;;5072112;28;20032;-59
2021/04/22 07:09:51;;;;;;;3.67;0.80;;;;;;;;;;5070450;28;20090;-59
2021/04/22 07:12:18;;;;;;;1.73;0.85;;;;;;;;;;5074241;28;20044;-59
2021/04/22 07:14:43;;;;;;;0.57;0.57;;;;;;;;;;5072471;28;20511;-59
2021/04/22 07:17:10;;;;;;;6.95;1.10;;;;;;;;;;5072139;28;20048;-59
2021/04/22 07:19:38;;;;;;;1.45;0.68;;;;;;;;;;5073096;28;20553;-59
2021/04/22 07:22:05;;;;;;;3.25;0.90;;;;;;;;;;5069471;28;20049;-59
2021/04/22 07:24:31;;;;;;;1.17;0.70;;;;;;;;;;5071858;28;20053;-58
2021/04/22 07:26:58;;;;;;;3.13;0.67;;;;;;;;;;5073581;28;20040;-59
2021/04/22 07:29:25;;;;;;;1.67;0.73;;;;;;;;;;5071868;28;20299;-59
2021/04/22 07:31:51;;;;;;;2.83;0.80;;;;;;;;;;5067550;28;20052;-59
2021/04/22 07:34:18;;;;;;;1.48;0.90;;;;;;;;;;5065986;28;20132;-57
2021/04/22 07:36:44;;;;;;;3.78;0.70;;;;;;;;;;5072530;28;20036;-59
2021/04/22 07:39:11;;;;;;;2.22;0.50;;;;;;;;;;5073146;28;20044;-59
2021/04/22 07:41:37;;;;;;;3.55;0.63;;;;;;;;;;5068523;28;20045;-59
2021/04/22 07:44:04;;;;;;;3.50;0.77;;;;;;;;;;5072978;28;20047;-59
2021/04/22 07:46:30;;;;;;;2.88;0.60;;;;;;;;;;5069806;28;20071;-59
2021/04/22 07:48:57;;;;;;;2.33;0.60;;;;;;;;;;5072634;28;20443;-59
2021/04/22 07:51:23;;;;;;;4.55;0.88;;;;;;;;;;5071227;28;20048;-59
2021/04/22 07:53:49;;;;;;;1.27;0.60;;;;;;;;;;5070654;28;20102;-59
2021/04/22 07:56:15;;;;;;;0.90;0.63;;;;;;;;;;5071613;28;20060;-59
2021/04/22 07:58:41;;;;;;;1.38;0.47;;;;;;;;;;5073578;28;20118;-59
2021/04/22 08:01:08;;;;;;;1.00;0.65;;;;;;;;;;5072196;28;20069;-59
2021/04/22 08:03:35;;;;;;;2.92;1.00;;;;;;;;;;5073960;28;20045;-59
2021/04/22 08:06:01;;;;;;;2.40;0.82;;;;;;;;;;5069874;28;20048;-60
2021/04/22 08:08:28;;;;;;;2.00;1.08;;;;;;;;;;5069861;28;20489;-59
2021/04/22 08:10:55;;;;;;;1.88;0.82;;;;;;;;;;5071293;28;20059;-59
2021/04/22 08:13:21;;;;;;;1.38;0.70;;;;;;;;;;5069101;28;20052;-59
2021/04/22 08:15:48;;;;;;;1.95;0.60;;;;;;;;;;5066754;28;20040;-59
2021/04/22 08:18:15;;;;;;;1.33;0.73;;;;;;;;;;5072383;28;20040;-59
2021/04/22 08:20:41;;;;;;;1.33;0.80;;;;;;;;;;5072074;28;20052;-59
2021/04/22 08:23:08;;;;;;;2.45;0.80;;;;;;;;;;5068091;28;20041;-59
2021/04/22 08:25:39;;;;;;;0.85;0.57;;;;;;;;;;5069970;28;20056;-59
2021/04/22 08:28:08;;;;;;;1.00;0.80;;;;;;;;;;5071819;28;20048;-59
2021/04/22 08:30:37;;;;;;;0.68;0.60;;;;;;;;;;5070261;28;20048;-59
2021/04/22 08:33:07;;;;;;;0.65;0.50;;;;;;;;;;5069766;28;20045;-59
2021/04/22 08:35:33;;;;;;;1.75;0.70;;;;;;;;;;5066834;28;20143;-59
2021/04/22 08:37:59;;;;;;;1.40;0.63;;;;;;;;;;5069774;28;20056;-59
2021/04/22 08:40:26;;;;;;;1.33;0.77;;;;;;;;;;5065551;28;20086;-59
2021/04/22 08:42:53;;;;;;;0.82;0.70;;;;;;;;;;5069528;28;20037;-59
2021/04/22 08:45:19;;;;;;;3.95;0.80;;;;;;;;;;5065961;28;20045;-59
2021/04/22 08:47:46;;;;;;;4.35;0.70;;;;;;;;;;5070781;28;20064;-59
2021/04/22 08:50:23;;;;;;;2.05;0.70;;;;;;;;;;5070909;28;20043;-59
2021/04/22 08:52:50;;;;;;;2.40;0.95;;;;;;;;;;5068492;28;20044;-59
2021/04/22 08:55:17;;;;;;;2.75;0.80;;;;;;;;;;5066691;28;20037;-59
2021/04/22 08:57:43;;;;;;;1.45;0.50;;;;;;;;;;5065871;28;20565;-59
2021/04/22 09:00:12;;;;;;;2.90;1.10;;;;;;;;;;5069242;28;20052;-59
2021/04/22 09:02:38;;;;;;;1.67;0.80;;;;;;;;;;5067443;28;20446;-59
2021/04/22 09:05:05;;;;;;;3.60;0.93;;;;;;;;;;5070843;28;20044;-59
2021/04/22 09:07:32;;;;;;;3.75;0.80;;;;;;;;;;5065839;28;20048;-59
2021/04/22 09:10:00;;;;;;;1.95;0.70;;;;;;;;;;5066342;28;20119;-59
2021/04/22 09:12:27;;;;;;;1.15;0.60;;;;;;;;;;5066586;28;20044;-59
2021/04/22 09:15:13;;;;;;;1.10;0.50;;;;;;;;;;5067265;28;20056;-60
2021/04/22 09:17:40;;;;;;;2.75;0.68;;;;;;;;;;5066154;28;20080;-59
2021/04/22 09:20:09;;;;;;;6.13;0.85;;;;;;;;;;5069489;28;20040;-60
2021/04/22 09:22:35;;;;;;;;;;;;;;;;;;5069778;28;20488;-59
2021/04/22 09:25:16;;;;;;;1.60;0.88;;;;;;;;;;5069722;28;19928;-59
2021/04/22 09:27:43;;;;;;;1.65;0.70;;;;;;;;;;5066958;28;20044;-60
2021/04/22 09:30:09;;;;;;;0.98;0.63;;;;;;;;;;5068850;28;20479;-59
2021/04/22 09:32:37;;;;;;;2.00;0.70;;;;;;;;;;5064773;28;20107;-59
2021/04/22 09:35:09;;;;;;;0.73;0.60;;;;;;;;;;5068532;28;20128;-59
2021/04/22 09:37:46;;;;;;;4.05;0.82;;;;;;;;;;5066778;28;20044;-59
2021/04/22 09:40:17;;;;;;;1.47;0.70;;;;;;;;;;5068297;28;20048;-59
2021/04/22 09:42:43;;;;;;;0.85;0.57;;;;;;;;;;5064477;28;20141;-59
2021/04/22 09:45:11;;;;;;;1.23;0.90;;;;;;;;;;5070244;28;20040;-60
2021/04/22 09:47:37;;;;;;;1.02;0.80;;;;;;;;;;5066976;28;20070;-59
2021/04/22 09:50:10;;;;;;;1.77;0.98;;;;;;;;;;5069169;28;20131;-59
2021/04/22 09:52:41;;;;;;;1.77;0.60;;;;;;;;;;5070224;28;20117;-58
2021/04/22 09:55:08;;;;;;;2.55;0.95;;;;;;;;;;5068872;28;20117;-58
2021/04/22 09:57:35;;;;;;;3.05;0.88;;;;;;;;;;5066053;28;20124;-58
2021/04/22 10:00:12;;;;;;;1.75;0.80;;;;;;;;;;5069588;28;20071;-58
2021/04/22 10:02:43;;;;;;;1.55;0.70;;;;;;;;;;5068739;28;20044;-57
2021/04/22 10:05:16;;;;;;;1.80;0.80;;;;;;;;;;5067869;28;20044;-58
2021/04/22 10:07:43;;;;;;;0.85;0.60;;;;;;;;;;5062941;28;20052;-58
2021/04/22 10:10:20;;;;;;;2.30;0.93;;;;;;;;;;5069074;28;20492;-58
2021/04/22 10:12:46;;;;;;;1.42;0.63;;;;;;;;;;5069461;28;20041;-58
2021/04/22 10:15:17;;;;;;;3.97;0.88;;;;;;;;;;5065921;28;20052;-58
2021/04/22 10:17:51;;;;;;;3.63;1.08;;;;;;;;;;5067726;28;20071;-58
2021/04/22 10:20:18;;;;;;;1.58;0.63;;;;;;;;;;5067641;28;20544;-57
2021/04/22 10:22:46;;;;;;;3.28;0.85;;;;;;;;;;5067748;28;20043;-57
2021/04/22 10:25:13;;;;;;;1.05;0.60;;;;;;;;;;5066712;28;20404;-58
2021/04/22 10:27:40;;;;;;;2.03;0.73;;;;;;;;;;5062448;28;20160;-58
2021/04/22 10:30:07;;;;;;;2.00;0.90;;;;;;;;;;5066200;28;20511;-58
2021/04/22 10:32:34;;;;;;;1.17;0.82;;;;;;;;;;5064763;28;20037;-58
2021/04/22 10:35:01;;;;;;;1.25;1.00;;;;;;;;;;5066978;28;20142;-58
2021/04/22 10:37:28;;;;;;;1.73;0.70;;;;;;;;;;5068044;28;20174;-57
2021/04/22 10:39:56;;;;;;;1.30;0.70;;;;;;;;;;5085750;28;20064;-57
2021/04/22 10:42:23;;;;;;;1.23;0.65;;;;;;;;;;5069676;28;20067;-57
2021/04/22 10:44:50;;;;;;;0.85;0.70;;;;;;;;;;5065107;28;20041;-57
2021/04/22 10:47:20;;;;;;;2.53;0.93;;;;;;;;;;5066305;28;20041;-58
2021/04/22 10:49:47;;;;;;;2.15;0.68;;;;;;;;;;5068816;28;20057;-58
2021/04/22 10:52:14;;;;;;;5.72;0.70;;;;;;;;;;5067200;28;20542;-57
2021/04/22 10:54:41;;;;;;;1.77;0.88;;;;;;;;;;5069897;28;20059;-57
2021/04/22 10:57:09;;;;;;;2.15;0.73;;;;;;;;;;5068272;28;20041;-58
2021/04/22 10:59:35;;;;;;;;;;;;;;;;;;5069499;28;20051;-57
2021/04/22 11:02:11;;;;;;;1.45;0.82;;;;;;;;;;5069329;28;19927;-57
2021/04/22 11:04:38;;;;;;;1.45;0.70;;;;;;;;;;5066579;28;20037;-58
2021/04/22 11:07:18;;;;;;;4.05;0.80;;;;;;;;;;5068731;28;20094;-57
2021/04/22 11:09:45;;;;;;;0.90;0.70;;;;;;;;;;5064222;28;20036;-58
2021/04/22 11:12:11;;;;;;;1.38;0.50;;;;;;;;;;5068727;28;20075;-58
2021/04/22 11:14:42;;;;;;;0.77;0.63;;;;;;;;;;5062034;28;20099;-58
2021/04/22 11:17:09;;;;;;;;;;;;;;;;;;5069312;28;20389;-58
2021/04/22 11:19:42;;;;;;;1.15;0.70;;;;;;;;;;5066322;28;20356;-57
2021/04/22 11:22:12;;;;;;;1.55;0.70;;;;;;;;;;5066044;28;20036;-58
2021/04/22 11:24:43;;;;;;;1.60;0.68;;;;;;;;;;5065214;28;20485;-57
2021/04/22 11:27:12;;;;;;;1.52;1.00;;;;;;;;;;5064193;28;20107;-58
2021/04/22 11:29:39;;;;;;;2.78;0.90;;;;;;;;;;5066392;28;20159;-58
2021/04/22 11:32:16;;;;;;;4.50;0.70;;;;;;;;;;5065153;28;20111;-58
2021/04/22 11:34:43;;;;;;;1.50;0.98;;;;;;;;;;5064539;28;20602;-57
2021/04/22 11:37:14;;;;;;;0.98;0.70;;;;;;;;;;5068878;28;20407;-58
2021/04/22 11:39:40;;;;;;;8.48;1.00;;;;;;;;;;5069997;28;20052;-58
2021/04/22 11:42:06;;;;;;;2.38;1.13;;;;;;;;;;5072401;28;20078;-58
2021/04/22 11:44:34;;;;;;;2.22;1.00;;;;;;;;;;5071598;28;20048;-57
2021/04/22 11:47:12;;;;;;;1.67;0.80;;;;;;;;;;5070308;28;20080;-57
2021/04/22 11:49:38;;;;;;;2.28;0.73;;;;;;;;;;5074344;28;20086;-58
2021/04/22 11:52:13;;;;;;;1.00;0.88;;;;;;;;;;5068476;28;20086;-58
2021/04/22 11:54:39;;;;;;;0.85;0.77;;;;;;;;;;5072146;28;20153;-58
2021/04/22 11:57:06;;;;;;;1.83;1.05;;;;;;;;;;5071336;28;20036;-58
2021/04/22 11:59:32;;;;;;;4.05;1.20;;;;;;;;;;5069377;28;20089;-57
2021/04/22 12:02:01;;;;;;;1.00;0.70;;;;;;;;;;5067012;28;20079;-58
2021/04/22 12:04:36;;;;;;;0.82;0.68;;;;;;;;;;5072571;28;20040;-57
2021/04/22 12:07:05;;;;;;;1.88;1.27;;;;;;;;;;5066484;28;20447;-57
2021/04/22 12:09:33;;;;;;;3.53;0.80;;;;;;;;;;5071877;28;20055;-58
2021/04/22 12:12:26;;;;;;;1.63;0.90;;;;;;;;;;5068714;28;20079;-57
2021/04/22 12:14:54;;;;;;;1.63;0.70;;;;;;;;;;5069443;28;20113;-57
2021/04/22 12:17:25;;;;;;;1.85;0.85;;;;;;;;;;5071356;28;20044;-57
2021/04/22 12:19:53;;;;;;;0.93;0.63;;;;;;;;;;5057084;28;20147;-57
2021/04/22 12:22:35;;;;;;;1.02;0.93;;;;;;;;;;5072697;28;20467;-57
2021/04/22 12:25:21;;;;;;;2.47;0.80;;;;;;;;;;5067167;28;20040;-57
2021/04/22 12:27:50;;;;;;;2.83;0.88;;;;;;;;;;5073127;28;20044;-57
2021/04/22 12:30:18;;;;;;;2.03;1.02;;;;;;;;;;5068568;28;20056;-57
2021/04/22 12:32:48;;;;;;;2.17;0.82;;;;;;;;;;5067959;28;20060;-58
2021/04/22 12:35:16;;;;;;;2.15;0.73;;;;;;;;;;5070019;28;20048;-58
2021/04/22 12:37:42;;;;;;;1.90;0.90;;;;;;;;;;5062575;28;20041;-57
2021/04/22 12:40:09;;;;;;;1.23;0.73;;;;;;;;;;5070201;28;20040;-58
2021/04/22 12:42:36;;;;;;;1.98;1.00;;;;;;;;;;5069585;28;20047;-57
2021/04/22 12:45:08;;;;;;;1.05;0.68;;;;;;;;;;5068637;28;20115;-58
2021/04/22 12:47:37;;;;;;;1.60;0.90;;;;;;;;;;5066301;28;20554;-58
2021/04/22 12:50:06;;;;;;;2.58;0.85;;;;;;;;;;5068789;28;20044;-57
2021/04/22 12:52:32;;;;;;;;;;;;;;;;;;5068229;28;20051;-58
2021/04/22 12:55:01;;;;;;;4.18;1.10;;;;;;;;;;5070876;28;20031;-57
2021/04/22 12:57:28;;;;;;;0.85;0.68;;;;;;;;;;5069685;28;20052;-57
2021/04/22 12:59:54;;;;;;;1.77;0.80;;;;;;;;;;5071790;28;20045;-57
2021/04/22 13:02:21;;;;;;;3.35;1.00;;;;;;;;;;5071911;28;20102;-58
2021/04/22 13:04:58;;;;;;;0.95;0.80;;;;;;;;;;5069910;28;20448;-57
2021/04/22 13:07:26;;;;;;;2.17;1.00;;;;;;;;;;5067806;28;20126;-58
2021/04/22 13:09:52;;;;;;;2.33;1.08;;;;;;;;;;5069842;28;20496;-58
2021/04/22 13:12:18;;;;;;;2.22;1.00;;;;;;;;;;5069376;28;20045;-58
2021/04/22 13:14:46;;;;;;;2.10;0.90;;;;;;;;;;5066662;28;20444;-57
2021/04/22 13:17:13;;;;;;;2.67;1.05;;;;;;;;;;5070775;28;20029;-57
2021/04/22 13:19:39;;;;;;;1.35;0.77;;;;;;;;;;5067826;28;20550;-57
2021/04/22 13:22:11;;;;;;;1.77;1.00;;;;;;;;;;5066423;28;20058;-58
2021/04/22 13:24:39;;;;;;;1.88;0.88;;;;;;;;;;5066627;28;20041;-57
2021/04/22 13:27:08;;;;;;;0.90;0.70;;;;;;;;;;5070938;28;20059;-57
2021/04/22 13:29:42;;;;;;;2.60;1.13;;;;;;;;;;5066983;28;20053;-57
2021/04/22 13:32:09;;;;;;;5.15;1.33;;;;;;;;;;5067114;28;20569;-58
2021/04/22 13:34:43;;;;;;;2.93;1.00;;;;;;;;;;5064279;28;20098;-57
2021/04/22 13:37:10;;;;;;;3.67;1.15;;;;;;;;;;5065976;28;20099;-57
2021/04/22 13:39:38;;;;;;;1.13;0.90;;;;;;;;;;5066994;28;20036;-57
2021/04/22 13:42:05;;;;;;;1.83;1.02;;;;;;;;;;5065160;28;20073;-57
2021/04/22 13:44:34;;;;;;;1.90;0.90;;;;;;;;;;5066040;28;20075;-58
2021/04/22 13:47:02;;;;;;;2.15;1.13;;;;;;;;;;5068644;28;20067;-58
2021/04/22 13:49:30;;;;;;;1.77;1.20;;;;;;;;;;5070041;28;20097;-58
2021/04/22 13:52:24;;;;;;;3.28;1.00;;;;;;;;;;5081465;28;20704;-57
2021/04/22 13:54:54;;;;;;;4.40;1.10;;;;;;;;;;5063460;28;20420;-57
2021/04/22 13:57:44;;;;;;;3.83;1.38;;;;;;;;;;5066040;28;20036;-57
2021/04/22 14:00:15;;;;;;;4.38;1.02;;;;;;;;;;5065859;28;20052;-58
2021/04/22 14:02:42;;;;;;;1.83;1.00;;;;;;;;;;5066698;28;20068;-57
2021/04/22 14:05:10;;;;;;;1.75;0.88;;;;;;;;;;5063630;28;20165;-58
2021/04/22 14:07:36;;;;;;;;;;;;;;;;;;5063213;28;20114;-57
2021/04/22 14:10:04;;;;;;;2.88;1.13;;;;;;;;;;5067764;28;20015;-57
2021/04/22 14:12:36;;;;;;;1.13;0.80;;;;;;;;;;5064718;28;20413;-57
2021/04/22 14:15:05;;;;;;;11.20;1.17;;;;;;;;;;5063755;28;20531;-57
2021/04/22 14:17:32;;;;;;;2.40;1.00;;;;;;;;;;5065346;28;20040;-57
2021/04/22 14:19:59;;;;;;;3.03;1.10;;;;;;;;;;5069775;28;20036;-57
2021/04/22 14:22:25;;;;;;;2.88;1.02;;;;;;;;;;5067867;28;20097;-57
2021/04/22 14:24:51;;;;;;;1.42;1.00;;;;;;;;;;5068320;28;20036;-58
2021/04/22 14:27:17;;;;;;;1.77;1.10;;;;;;;;;;5065414;28;20048;-57
2021/04/22 14:29:44;;;;;;;2.83;1.00;;;;;;;;;;5069159;28;20408;-57
2021/04/22 14:32:10;;;;;;;3.58;1.05;;;;;;;;;;5067171;28;20049;-57
2021/04/22 14:34:36;;;;;;;4.75;1.05;;;;;;;;;;5063509;28;20044;-58
2021/04/22 14:37:03;;;;;;;3.50;0.90;;;;;;;;;;5061371;28;20051;-58
2021/04/22 14:39:30;;;;;;;0.88;0.80;;;;;;;;;;5068215;28;20048;-58
2021/04/22 14:41:57;;;;;;;1.02;0.93;;;;;;;;;;5066516;28;20052;-57
2021/04/22 14:44:24;;;;;;;1.70;0.98;;;;;;;;;;5063347;28;20412;-57
2021/04/22 14:46:50;;;;;;;2.88;0.95;;;;;;;;;;5065040;28;20508;-57
2021/04/22 14:49:18;;;;;;;3.80;0.98;;;;;;;;;;5070254;28;20151;-58